sensor_id;sensor_type;location;lat;lon;timestamp;pressure;altitude;pressure_sealevel;temperature;humidity
11643;BME280;5877;50.930;6.918;2022-12-07T00:00:43;101095.72;;;5.23;79.51
11643;BME280;5877;50.930;6.918;2022-12-07T00:05:35;101082.88;;;5.21;79.21
11643;BME280;5877;50.930;6.918;2022-12-07T00:10:27;101163.66;;;5.69;79.33
11643;BME280;5877;50.930;6.918;2022-12-07T00:15:18;101151.59;;;5.68;79.13
11643;BME280;5877;50.930;6.918;2022-12-07T00:20:10;101113.09;;;5.39;78.89
11643;BME280;5877;50.930;6.918;2022-12-07T00:25:01;101144.47;;;5.53;79.79
11643;BME280;5877;50.930;6.918;2022-12-07T00:29:54;101145.78;;;5.41;79.50
11643;BME280;5877;50.930;6.918;2022-12-07T00:34:46;101093.97;;;5.07;79.46
11643;BME280;5877;50.930;6.918;2022-12-07T00:39:38;101066.50;;;4.72;80.29
11643;BME280;5877;50.930;6.918;2022-12-07T00:44:29;101131.97;;;5.25;80.74
11643;BME280;5877;50.930;6.918;2022-12-07T00:49:21;101131.78;;;5.42;81.14
11643;BME280;5877;50.930;6.918;2022-12-07T00:54:13;101138.13;;;5.56;79.91
11643;BME280;5877;50.930;6.918;2022-12-07T00:59:04;101110.63;;;5.53;78.86
11643;BME280;5877;50.930;6.918;2022-12-07T01:03:56;101101.03;;;5.54;78.38
11643;BME280;5877;50.930;6.918;2022-12-07T01:08:48;101129.13;;;5.75;78.28
11643;BME280;5877;50.930;6.918;2022-12-07T01:13:40;101043.16;;;5.28;78.31
11643;BME280;5877;50.930;6.918;2022-12-07T01:18:33;101132.00;;;5.88;78.12
11643;BME280;5877;50.930;6.918;2022-12-07T01:23:26;101036.34;;;5.27;77.69
11643;BME280;5877;50.930;6.918;2022-12-07T01:28:17;101134.00;;;5.78;78.65
11643;BME280;5877;50.930;6.918;2022-12-07T01:33:09;101134.31;;;5.83;78.89
11643;BME280;5877;50.930;6.918;2022-12-07T01:38:01;101096.44;;;5.64;78.64
11643;BME280;5877;50.930;6.918;2022-12-07T01:42:52;101127.66;;;5.80;78.54
11643;BME280;5877;50.930;6.918;2022-12-07T01:47:48;101125.53;;;5.76;78.89
11643;BME280;5877;50.930;6.918;2022-12-07T01:52:41;101052.59;;;5.29;78.08
11643;BME280;5877;50.930;6.918;2022-12-07T01:57:41;101126.50;;;5.83;79.06
11643;BME280;5877;50.930;6.918;2022-12-07T02:02:43;101120.66;;;5.89;78.96
11643;BME280;5877;50.930;6.918;2022-12-07T02:07:37;101110.75;;;5.68;79.40
11643;BME280;5877;50.930;6.918;2022-12-07T02:12:29;101110.94;;;5.59;79.48
11643;BME280;5877;50.930;6.918;2022-12-07T02:17:27;101111.59;;;5.52;80.10
11643;BME280;5877;50.930;6.918;2022-12-07T02:27:53;101027.94;;;5.16;79.23
11643;BME280;5877;50.930;6.918;2022-12-07T02:33:08;101052.97;;;5.17;79.77
11643;BME280;5877;50.930;6.918;2022-12-07T02:43:06;101066.28;;;5.22;79.26
11643;BME280;5877;50.930;6.918;2022-12-07T02:48:02;101051.47;;;5.31;79.60
11643;BME280;5877;50.930;6.918;2022-12-07T02:52:55;101029.44;;;4.95;80.53
11643;BME280;5877;50.930;6.918;2022-12-07T02:58:30;101096.19;;;5.35;80.41
11643;BME280;5877;50.930;6.918;2022-12-07T03:03:24;101034.94;;;5.08;80.61
11643;BME280;5877;50.930;6.918;2022-12-07T03:13:30;101107.72;;;5.48;78.98
11643;BME280;5877;50.930;6.918;2022-12-07T03:18:28;100952.44;;;4.53;78.84
11643;BME280;5877;50.930;6.918;2022-12-07T03:23:23;100842.38;;;3.97;78.80
11643;BME280;5877;50.930;6.918;2022-12-07T03:28:19;101027.13;;;5.16;79.57
11643;BME280;5877;50.930;6.918;2022-12-07T03:38:40;101101.66;;;5.56;78.96
11643;BME280;5877;50.930;6.918;2022-12-07T03:43:34;101073.38;;;5.45;79.25
11643;BME280;5877;50.930;6.918;2022-12-07T03:48:49;101097.75;;;5.60;79.39
11643;BME280;5877;50.930;6.918;2022-12-07T03:53:58;101100.53;;;5.59;78.64
11643;BME280;5877;50.930;6.918;2022-12-07T03:58:52;101004.22;;;4.95;79.20
11643;BME280;5877;50.930;6.918;2022-12-07T04:03:45;101063.31;;;5.34;79.70
11643;BME280;5877;50.930;6.918;2022-12-07T04:08:36;101095.03;;;5.45;79.44
11643;BME280;5877;50.930;6.918;2022-12-07T04:13:28;101101.53;;;5.49;79.91
11643;BME280;5877;50.930;6.918;2022-12-07T04:18:19;101107.38;;;5.51;79.38
11643;BME280;5877;50.930;6.918;2022-12-07T04:23:11;101105.59;;;5.52;79.00
11643;BME280;5877;50.930;6.918;2022-12-07T04:28:03;101097.47;;;5.39;79.67
11643;BME280;5877;50.930;6.918;2022-12-07T04:32:55;101026.03;;;4.86;80.28
11643;BME280;5877;50.930;6.918;2022-12-07T04:37:46;101089.25;;;5.11;80.63
11643;BME280;5877;50.930;6.918;2022-12-07T04:42:38;101073.00;;;4.93;80.88
11643;BME280;5877;50.930;6.918;2022-12-07T04:47:29;101036.28;;;4.71;80.21
11643;BME280;5877;50.930;6.918;2022-12-07T04:52:21;101086.66;;;5.11;80.36
11643;BME280;5877;50.930;6.918;2022-12-07T04:57:13;101087.63;;;5.10;80.49
11643;BME280;5877;50.930;6.918;2022-12-07T05:02:04;101086.00;;;5.09;80.45
11643;BME280;5877;50.930;6.918;2022-12-07T05:06:56;101035.28;;;4.80;80.58
11643;BME280;5877;50.930;6.918;2022-12-07T05:11:47;101089.56;;;5.16;79.99
11643;BME280;5877;50.930;6.918;2022-12-07T05:16:40;101094.94;;;5.14;80.16
11643;BME280;5877;50.930;6.918;2022-12-07T05:21:32;101095.25;;;5.11;80.10
11643;BME280;5877;50.930;6.918;2022-12-07T05:26:24;101102.75;;;5.14;80.43
11643;BME280;5877;50.930;6.918;2022-12-07T05:31:16;101045.03;;;4.86;79.96
11643;BME280;5877;50.930;6.918;2022-12-07T05:36:08;101100.94;;;5.15;79.58
11643;BME280;5877;50.930;6.918;2022-12-07T05:41:01;101098.84;;;5.18;79.85
11643;BME280;5877;50.930;6.918;2022-12-07T05:45:53;101080.78;;;5.09;79.60
11643;BME280;5877;50.930;6.918;2022-12-07T05:50:47;100980.53;;;4.49;79.93
11643;BME280;5877;50.930;6.918;2022-12-07T05:55:39;100995.00;;;4.60;80.88
11643;BME280;5877;50.930;6.918;2022-12-07T06:00:31;101082.75;;;5.07;80.95
11643;BME280;5877;50.930;6.918;2022-12-07T06:05:23;101089.41;;;5.01;81.31
11643;BME280;5877;50.930;6.918;2022-12-07T06:10:15;101061.94;;;4.74;81.14
11643;BME280;5877;50.930;6.918;2022-12-07T06:15:07;101090.88;;;4.71;81.42
11643;BME280;5877;50.930;6.918;2022-12-07T06:19:58;101094.75;;;4.51;81.89
11643;BME280;5877;50.930;6.918;2022-12-07T06:24:51;101087.72;;;4.27;82.97
11643;BME280;5877;50.930;6.918;2022-12-07T06:29:42;101091.13;;;4.28;83.28
11643;BME280;5877;50.930;6.918;2022-12-07T06:34:34;101069.66;;;4.17;83.77
11643;BME280;5877;50.930;6.918;2022-12-07T06:39:27;101091.47;;;4.41;83.26
11643;BME280;5877;50.930;6.918;2022-12-07T06:44:20;101021.09;;;4.02;82.70
11643;BME280;5877;50.930;6.918;2022-12-07T06:49:11;101091.19;;;4.60;82.53
11643;BME280;5877;50.930;6.918;2022-12-07T06:54:03;101007.31;;;4.09;82.24
11643;BME280;5877;50.930;6.918;2022-12-07T06:58:55;100994.31;;;4.01;81.79
11643;BME280;5877;50.930;6.918;2022-12-07T07:03:47;101020.13;;;4.11;81.58
11643;BME280;5877;50.930;6.918;2022-12-07T07:08:39;101082.72;;;4.50;81.89
11643;BME280;5877;50.930;6.918;2022-12-07T07:13:31;101112.81;;;4.77;81.58
11643;BME280;5877;50.930;6.918;2022-12-07T07:18:22;101077.84;;;4.47;82.04
11643;BME280;5877;50.930;6.918;2022-12-07T07:23:14;101052.16;;;4.28;82.27
11643;BME280;5877;50.930;6.918;2022-12-07T07:28:06;101096.72;;;4.65;82.37
11643;BME280;5877;50.930;6.918;2022-12-07T07:32:59;101110.38;;;4.75;81.31
11643;BME280;5877;50.930;6.918;2022-12-07T07:37:51;101043.53;;;4.27;81.38
11643;BME280;5877;50.930;6.918;2022-12-07T07:42:42;101047.59;;;4.21;81.49
11643;BME280;5877;50.930;6.918;2022-12-07T07:47:34;101116.03;;;4.54;82.06
11643;BME280;5877;50.930;6.918;2022-12-07T07:52:26;101035.91;;;4.17;82.45
11643;BME280;5877;50.930;6.918;2022-12-07T07:57:17;101098.19;;;4.92;81.66
11643;BME280;5877;50.930;6.918;2022-12-07T08:02:14;101117.19;;;5.25;80.64
11643;BME280;5877;50.930;6.918;2022-12-07T08:07:06;101070.88;;;5.04;79.25
11643;BME280;5877;50.930;6.918;2022-12-07T08:11:57;101087.88;;;5.31;79.19
11643;BME280;5877;50.930;6.918;2022-12-07T08:16:49;101039.19;;;4.93;78.53
11643;BME280;5877;50.930;6.918;2022-12-07T08:21:41;101128.88;;;5.37;79.27
11643;BME280;5877;50.930;6.918;2022-12-07T08:26:32;101119.94;;;5.32;79.48
11643;BME280;5877;50.930;6.918;2022-12-07T08:31:25;101119.75;;;5.49;78.70
11643;BME280;5877;50.930;6.918;2022-12-07T08:36:17;101038.00;;;5.19;77.99
11643;BME280;5877;50.930;6.918;2022-12-07T08:41:09;101122.69;;;6.10;76.83
11643;BME280;5877;50.930;6.918;2022-12-07T08:46:20;100984.75;;;5.38;75.90
11643;BME280;5877;50.930;6.918;2022-12-07T08:51:13;101075.25;;;6.14;74.78
11643;BME280;5877;50.930;6.918;2022-12-07T08:56:05;101127.69;;;6.50;75.03
11643;BME280;5877;50.930;6.918;2022-12-07T09:00:57;101063.72;;;6.40;74.56
11643;BME280;5877;50.930;6.918;2022-12-07T09:05:49;101123.72;;;7.23;72.88
11643;BME280;5877;50.930;6.918;2022-12-07T09:10:41;101127.44;;;7.29;72.72
11643;BME280;5877;50.930;6.918;2022-12-07T09:15:32;101110.94;;;7.28;71.49
11643;BME280;5877;50.930;6.918;2022-12-07T09:20:24;101106.63;;;7.21;71.49
11643;BME280;5877;50.930;6.918;2022-12-07T09:25:18;101070.28;;;6.96;71.67
11643;BME280;5877;50.930;6.918;2022-12-07T09:30:10;101008.47;;;6.59;70.98
11643;BME280;5877;50.930;6.918;2022-12-07T09:35:02;101149.78;;;7.08;72.44
11643;BME280;5877;50.930;6.918;2022-12-07T09:39:54;101130.56;;;7.24;72.64
11643;BME280;5877;50.930;6.918;2022-12-07T09:44:45;101118.50;;;7.23;71.64
11643;BME280;5877;50.930;6.918;2022-12-07T09:49:37;101038.19;;;6.73;71.86
11643;BME280;5877;50.930;6.918;2022-12-07T09:54:29;101023.50;;;6.57;72.09
11643;BME280;5877;50.930;6.918;2022-12-07T09:59:22;101073.09;;;7.09;71.62
11643;BME280;5877;50.930;6.918;2022-12-07T10:04:17;101124.59;;;7.68;70.63
11643;BME280;5877;50.930;6.918;2022-12-07T10:09:15;101115.63;;;8.06;68.57
11643;BME280;5877;50.930;6.918;2022-12-07T10:14:12;101113.59;;;8.23;68.86
11643;BME280;5877;50.930;6.918;2022-12-07T10:19:36;101102.41;;;8.29;67.95
11643;BME280;5877;50.930;6.918;2022-12-07T10:24:28;101106.41;;;8.10;67.83
11643;BME280;5877;50.930;6.918;2022-12-07T10:29:23;101104.91;;;8.01;67.96
11643;BME280;5877;50.930;6.918;2022-12-07T10:34:30;101089.59;;;7.83;68.49
11643;BME280;5877;50.930;6.918;2022-12-07T10:39:28;101086.81;;;7.85;68.87
11643;BME280;5877;50.930;6.918;2022-12-07T10:44:22;101083.25;;;8.07;67.85
11643;BME280;5877;50.930;6.918;2022-12-07T11:04:59;101067.25;;;8.32;65.84
11643;BME280;5877;50.930;6.918;2022-12-07T11:15:09;100991.00;;;7.92;66.94
11643;BME280;5877;50.930;6.918;2022-12-07T11:30:46;101028.28;;;8.37;65.99
11643;BME280;5877;50.930;6.918;2022-12-07T11:36:02;100921.38;;;7.63;65.76
11643;BME280;5877;50.930;6.918;2022-12-07T11:41:02;100978.19;;;7.76;66.11
11643;BME280;5877;50.930;6.918;2022-12-07T11:46:12;101011.63;;;7.66;66.61
11643;BME280;5877;50.930;6.918;2022-12-07T11:51:11;100950.53;;;7.16;66.78
11643;BME280;5877;50.930;6.918;2022-12-07T11:56:09;100937.56;;;6.93;67.52
11643;BME280;5877;50.930;6.918;2022-12-07T12:01:13;100893.09;;;6.57;68.79
11643;BME280;5877;50.930;6.918;2022-12-07T12:06:11;100932.78;;;6.67;68.68
11643;BME280;5877;50.930;6.918;2022-12-07T12:22:17;101004.69;;;6.84;70.00
11643;BME280;5877;50.930;6.918;2022-12-07T12:27:18;100934.06;;;6.34;70.20
11643;BME280;5877;50.930;6.918;2022-12-07T12:32:27;100972.78;;;6.60;70.23
11643;BME280;5877;50.930;6.918;2022-12-07T12:42:52;100857.13;;;6.38;69.05
11643;BME280;5877;50.930;6.918;2022-12-07T12:47:59;100968.34;;;7.42;68.06
11643;BME280;5877;50.930;6.918;2022-12-07T12:52:57;100868.03;;;6.86;68.43
11643;BME280;5877;50.930;6.918;2022-12-07T12:58:29;100984.25;;;7.47;67.43
11643;BME280;5877;50.930;6.918;2022-12-07T13:03:26;100981.56;;;7.40;67.71
11643;BME280;5877;50.930;6.918;2022-12-07T13:08:25;100912.66;;;6.91;67.92
11643;BME280;5877;50.930;6.918;2022-12-07T13:13:29;100904.19;;;6.74;68.72
11643;BME280;5877;50.930;6.918;2022-12-07T13:18:40;100969.53;;;7.10;67.94
11643;BME280;5877;50.930;6.918;2022-12-07T13:28:38;100940.97;;;7.23;68.41
11643;BME280;5877;50.930;6.918;2022-12-07T13:33:34;100900.75;;;7.18;68.09
11643;BME280;5877;50.930;6.918;2022-12-07T13:38:30;100922.59;;;7.31;68.59
11643;BME280;5877;50.930;6.918;2022-12-07T13:43:23;100943.75;;;7.36;68.73
11643;BME280;5877;50.930;6.918;2022-12-07T13:48:42;100827.19;;;6.78;68.09
11643;BME280;5877;50.930;6.918;2022-12-07T13:53:33;100844.53;;;7.00;67.02
11643;BME280;5877;50.930;6.918;2022-12-07T13:58:37;100776.19;;;6.75;66.78
11643;BME280;5877;50.930;6.918;2022-12-07T14:03:34;100863.41;;;7.17;67.05
11643;BME280;5877;50.930;6.918;2022-12-07T14:08:29;100909.00;;;7.36;67.35
11643;BME280;5877;50.930;6.918;2022-12-07T14:13:37;100744.47;;;6.28;66.91
11643;BME280;5877;50.930;6.918;2022-12-07T14:18:38;100840.56;;;6.90;67.40
11643;BME280;5877;50.930;6.918;2022-12-07T14:23:30;100841.22;;;6.77;68.19
11643;BME280;5877;50.930;6.918;2022-12-07T14:28:30;100912.81;;;7.19;69.13
11643;BME280;5877;50.930;6.918;2022-12-07T14:33:24;100903.81;;;7.06;69.52
11643;BME280;5877;50.930;6.918;2022-12-07T14:38:15;100861.81;;;6.72;69.28
11643;BME280;5877;50.930;6.918;2022-12-07T14:43:12;100868.56;;;6.81;69.58
11643;BME280;5877;50.930;6.918;2022-12-07T14:48:05;100869.47;;;6.88;69.84
11643;BME280;5877;50.930;6.918;2022-12-07T14:53:27;100876.56;;;6.79;70.94
11643;BME280;5877;50.930;6.918;2022-12-07T14:58:20;100837.72;;;6.55;71.09
11643;BME280;5877;50.930;6.918;2022-12-07T15:03:12;100883.22;;;6.67;72.29
11643;BME280;5877;50.930;6.918;2022-12-07T15:08:05;100876.56;;;6.65;72.54
11643;BME280;5877;50.930;6.918;2022-12-07T15:13:02;100847.50;;;6.38;74.07
11643;BME280;5877;50.930;6.918;2022-12-07T15:18:12;100813.75;;;6.07;74.81
11643;BME280;5877;50.930;6.918;2022-12-07T15:23:04;100886.28;;;6.56;76.07
11643;BME280;5877;50.930;6.918;2022-12-07T15:27:56;100861.06;;;6.34;75.69
11643;BME280;5877;50.930;6.918;2022-12-07T15:32:51;100887.28;;;6.17;75.75
11643;BME280;5877;50.930;6.918;2022-12-07T15:37:43;100875.41;;;5.69;75.60
11643;BME280;5877;50.930;6.918;2022-12-07T15:42:37;100878.56;;;5.57;76.68
11643;BME280;5877;50.930;6.918;2022-12-07T15:47:49;100877.53;;;5.66;77.85
11643;BME280;5877;50.930;6.918;2022-12-07T15:53:01;100843.75;;;5.58;77.71
11643;BME280;5877;50.930;6.918;2022-12-07T15:57:53;100875.28;;;5.32;79.33
11643;BME280;5877;50.930;6.918;2022-12-07T16:02:44;100794.41;;;4.48;80.38
11643;BME280;5877;50.930;6.918;2022-12-07T16:07:36;100834.00;;;4.59;81.18
11643;BME280;5877;50.930;6.918;2022-12-07T16:12:27;100865.81;;;4.69;81.95
11643;BME280;5877;50.930;6.918;2022-12-07T16:17:19;100865.50;;;4.64;81.62
11643;BME280;5877;50.930;6.918;2022-12-07T16:22:11;100813.47;;;4.24;81.38
11643;BME280;5877;50.930;6.918;2022-12-07T16:27:02;100864.69;;;4.71;81.23
11643;BME280;5877;50.930;6.918;2022-12-07T16:31:54;100812.59;;;4.48;80.16
11643;BME280;5877;50.930;6.918;2022-12-07T16:36:46;100865.41;;;4.96;79.47
11643;BME280;5877;50.930;6.918;2022-12-07T16:41:55;100845.06;;;5.00;79.17
11643;BME280;5877;50.930;6.918;2022-12-07T16:46:46;100838.72;;;5.02;78.65
11643;BME280;5877;50.930;6.918;2022-12-07T16:51:38;100826.31;;;5.12;77.08
11643;BME280;5877;50.930;6.918;2022-12-07T16:56:30;100841.63;;;5.30;77.77
11643;BME280;5877;50.930;6.918;2022-12-07T17:01:22;100793.09;;;4.92;76.70
11643;BME280;5877;50.930;6.918;2022-12-07T17:06:17;100849.09;;;5.33;76.88
11643;BME280;5877;50.930;6.918;2022-12-07T17:11:14;100841.13;;;5.35;76.16
11643;BME280;5877;50.930;6.918;2022-12-07T17:16:06;100832.66;;;5.33;77.11
11643;BME280;5877;50.930;6.918;2022-12-07T17:21:06;100835.31;;;5.25;76.98
11643;BME280;5877;50.930;6.918;2022-12-07T17:26:20;100833.31;;;5.35;77.77
11643;BME280;5877;50.930;6.918;2022-12-07T17:31:14;100806.53;;;5.26;77.36
11643;BME280;5877;50.930;6.918;2022-12-07T17:36:17;100821.97;;;5.28;76.04
11643;BME280;5877;50.930;6.918;2022-12-07T17:41:19;100720.06;;;4.70;76.47
11643;BME280;5877;50.930;6.918;2022-12-07T17:46:29;100794.63;;;5.09;77.08
11643;BME280;5877;50.930;6.918;2022-12-07T17:51:21;100804.81;;;5.18;77.54
11643;BME280;5877;50.930;6.918;2022-12-07T17:56:32;100800.84;;;5.22;77.65
11643;BME280;5877;50.930;6.918;2022-12-07T18:01:24;100748.38;;;4.96;77.39
11643;BME280;5877;50.930;6.918;2022-12-07T18:06:21;100801.22;;;5.42;77.66
11643;BME280;5877;50.930;6.918;2022-12-07T18:11:13;100797.28;;;5.46;77.81
11643;BME280;5877;50.930;6.918;2022-12-07T18:16:07;100699.47;;;4.92;78.17
11643;BME280;5877;50.930;6.918;2022-12-07T18:21:24;100788.19;;;5.42;77.71
11643;BME280;5877;50.930;6.918;2022-12-07T18:26:16;100779.28;;;5.37;77.49
11643;BME280;5877;50.930;6.918;2022-12-07T18:31:08;100630.19;;;4.45;78.81
11643;BME280;5877;50.930;6.918;2022-12-07T18:36:08;100779.34;;;5.51;77.73
11643;BME280;5877;50.930;6.918;2022-12-07T18:41:00;100779.19;;;5.53;77.28
11643;BME280;5877;50.930;6.918;2022-12-07T18:45:52;100754.94;;;5.30;77.81
11643;BME280;5877;50.930;6.918;2022-12-07T18:50:58;100767.03;;;5.45;77.86
11643;BME280;5877;50.930;6.918;2022-12-07T18:56:05;100769.69;;;5.37;78.79
11643;BME280;5877;50.930;6.918;2022-12-07T19:00:58;100731.31;;;5.16;79.06
11643;BME280;5877;50.930;6.918;2022-12-07T19:05:49;100726.00;;;5.10;78.83
11643;BME280;5877;50.930;6.918;2022-12-07T19:10:41;100756.56;;;5.31;78.70
11643;BME280;5877;50.930;6.918;2022-12-07T19:15:33;100756.34;;;5.40;78.24
11643;BME280;5877;50.930;6.918;2022-12-07T19:20:24;100727.81;;;5.24;78.10
11643;BME280;5877;50.930;6.918;2022-12-07T19:25:16;100743.31;;;5.40;78.37
11643;BME280;5877;50.930;6.918;2022-12-07T19:30:08;100661.78;;;4.87;77.43
11643;BME280;5877;50.930;6.918;2022-12-07T19:35:01;100657.56;;;4.86;77.63
11643;BME280;5877;50.930;6.918;2022-12-07T19:39:53;100732.97;;;5.32;77.70
11643;BME280;5877;50.930;6.918;2022-12-07T19:44:45;100644.28;;;4.81;77.69
11643;BME280;5877;50.930;6.918;2022-12-07T19:49:37;100740.13;;;5.30;77.85
11643;BME280;5877;50.930;6.918;2022-12-07T19:54:30;100741.31;;;5.28;78.29
11643;BME280;5877;50.930;6.918;2022-12-07T19:59:24;100737.00;;;5.20;78.87
11643;BME280;5877;50.930;6.918;2022-12-07T20:04:18;100678.25;;;4.80;78.64
11643;BME280;5877;50.930;6.918;2022-12-07T20:09:11;100727.28;;;5.14;79.57
11643;BME280;5877;50.930;6.918;2022-12-07T20:14:07;100720.34;;;5.06;79.23
11643;BME280;5877;50.930;6.918;2022-12-07T20:19:01;100716.38;;;4.87;79.40
11643;BME280;5877;50.930;6.918;2022-12-07T20:23:52;100591.28;;;4.06;79.15
11643;BME280;5877;50.930;6.918;2022-12-07T20:28:44;100719.63;;;4.89;78.91
11643;BME280;5877;50.930;6.918;2022-12-07T20:33:37;100724.59;;;4.76;78.95
11643;BME280;5877;50.930;6.918;2022-12-07T20:38:29;100619.69;;;3.99;80.09
11643;BME280;5877;50.930;6.918;2022-12-07T20:43:22;100726.44;;;4.60;80.26
11643;BME280;5877;50.930;6.918;2022-12-07T20:48:14;100626.00;;;4.05;79.61
11643;BME280;5877;50.930;6.918;2022-12-07T20:53:06;100705.66;;;4.60;80.50
11643;BME280;5877;50.930;6.918;2022-12-07T20:57:59;100702.94;;;4.53;79.53
11643;BME280;5877;50.930;6.918;2022-12-07T21:02:51;100717.97;;;4.66;80.29
11643;BME280;5877;50.930;6.918;2022-12-07T21:07:44;100686.66;;;4.59;80.18
11643;BME280;5877;50.930;6.918;2022-12-07T21:12:35;100705.41;;;4.77;79.76
11643;BME280;5877;50.930;6.918;2022-12-07T21:17:28;100694.88;;;4.71;79.82
11643;BME280;5877;50.930;6.918;2022-12-07T21:22:20;100687.06;;;4.71;79.20
11643;BME280;5877;50.930;6.918;2022-12-07T21:27:12;100483.84;;;3.37;78.91
11643;BME280;5877;50.930;6.918;2022-12-07T21:32:04;100691.81;;;4.67;78.95
11643;BME280;5877;50.930;6.918;2022-12-07T21:36:56;100602.13;;;4.09;78.90
11643;BME280;5877;50.930;6.918;2022-12-07T21:41:47;100594.50;;;4.08;79.75
11643;BME280;5877;50.930;6.918;2022-12-07T21:46:39;100385.84;;;2.77;79.58
11643;BME280;5877;50.930;6.918;2022-12-07T21:51:32;100659.72;;;4.52;78.63
11643;BME280;5877;50.930;6.918;2022-12-07T21:56:27;100556.78;;;3.89;79.49
11643;BME280;5877;50.930;6.918;2022-12-07T22:01:21;100655.84;;;4.48;79.22
11643;BME280;5877;50.930;6.918;2022-12-07T22:06:16;100609.06;;;4.17;78.85
11643;BME280;5877;50.930;6.918;2022-12-07T22:11:09;100650.06;;;4.38;79.00
11643;BME280;5877;50.930;6.918;2022-12-07T22:16:01;100610.47;;;4.28;78.84
11643;BME280;5877;50.930;6.918;2022-12-07T22:20:58;100594.91;;;4.28;78.86
11643;BME280;5877;50.930;6.918;2022-12-07T22:25:50;100622.06;;;4.48;78.88
11643;BME280;5877;50.930;6.918;2022-12-07T22:30:42;100593.41;;;4.33;78.48
11643;BME280;5877;50.930;6.918;2022-12-07T22:35:33;100539.03;;;4.01;77.91
11643;BME280;5877;50.930;6.918;2022-12-07T22:40:25;100597.78;;;4.33;78.24
11643;BME280;5877;50.930;6.918;2022-12-07T22:45:16;100651.59;;;4.55;78.77
11643;BME280;5877;50.930;6.918;2022-12-07T22:50:08;100471.78;;;3.52;79.02
11643;BME280;5877;50.930;6.918;2022-12-07T22:55:00;100624.44;;;4.57;79.16
11643;BME280;5877;50.930;6.918;2022-12-07T22:59:53;100584.09;;;4.39;79.19
11643;BME280;5877;50.930;6.918;2022-12-07T23:04:44;100620.09;;;4.50;78.24
11643;BME280;5877;50.930;6.918;2022-12-07T23:09:36;100610.69;;;4.49;79.13
11643;BME280;5877;50.930;6.918;2022-12-07T23:14:33;100612.94;;;4.52;78.33
11643;BME280;5877;50.930;6.918;2022-12-07T23:19:25;100464.28;;;3.57;78.39
11643;BME280;5877;50.930;6.918;2022-12-07T23:24:17;100611.97;;;4.53;78.96
11643;BME280;5877;50.930;6.918;2022-12-07T23:29:09;100601.56;;;4.53;78.52
11643;BME280;5877;50.930;6.918;2022-12-07T23:34:09;100445.41;;;3.71;77.68
11643;BME280;5877;50.930;6.918;2022-12-07T23:39:00;100502.16;;;4.05;77.30
11643;BME280;5877;50.930;6.918;2022-12-07T23:43:53;100550.97;;;4.41;78.10
11643;BME280;5877;50.930;6.918;2022-12-07T23:48:46;100569.69;;;4.59;77.92
11643;BME280;5877;50.930;6.918;2022-12-07T23:53:41;100566.28;;;4.59;77.50
11643;BME280;5877;50.930;6.918;2022-12-07T23:58:33;100559.63;;;4.56;78.48
